sensor_id;sensor_type;location;lat;lon;timestamp;pressure;altitude;pressure_sealevel;temperature;humidity
32324;BME280;25666;44.350;9.222;2022-12-18T00:00:58;102540.47;;;9.41;100.00
32324;BME280;25666;44.350;9.222;2022-12-18T00:03:24;102545.19;;;9.40;100.00
32324;BME280;25666;44.350;9.222;2022-12-18T00:05:51;102540.94;;;9.48;100.00
32324;BME280;25666;44.350;9.222;2022-12-18T00:08:18;102538.66;;;9.50;100.00
32324;BME280;25666;44.350;9.222;2022-12-18T00:10:44;102542.50;;;9.54;100.00
32324;BME280;25666;44.350;9.222;2022-12-18T00:13:10;102543.34;;;9.54;100.00
32324;BME280;25666;44.350;9.222;2022-12-18T00:15:37;102553.84;;;9.57;100.00
32324;BME280;25666;44.350;9.222;2022-12-18T00:18:03;102561.88;;;9.59;100.00
32324;BME280;25666;44.350;9.222;2022-12-18T00:20:29;102568.25;;;9.41;100.00
32324;BME280;25666;44.350;9.222;2022-12-18T00:22:54;102567.38;;;9.22;100.00
32324;BME280;25666;44.350;9.222;2022-12-18T00:25:20;102566.16;;;9.09;100.00
32324;BME280;25666;44.350;9.222;2022-12-18T00:27:46;102573.19;;;9.25;100.00
32324;BME280;25666;44.350;9.222;2022-12-18T00:30:13;102568.94;;;9.33;100.00
32324;BME280;25666;44.350;9.222;2022-12-18T00:32:39;102560.59;;;9.33;100.00
32324;BME280;25666;44.350;9.222;2022-12-18T00:35:06;102556.03;;;9.18;100.00
32324;BME280;25666;44.350;9.222;2022-12-18T00:37:33;102550.91;;;9.30;100.00
32324;BME280;25666;44.350;9.222;2022-12-18T00:39:59;102562.03;;;9.30;100.00
32324;BME280;25666;44.350;9.222;2022-12-18T00:42:25;102553.84;;;9.39;100.00
32324;BME280;25666;44.350;9.222;2022-12-18T00:45:09;102553.75;;;9.44;100.00
32324;BME280;25666;44.350;9.222;2022-12-18T00:47:38;102556.03;;;9.18;100.00
32324;BME280;25666;44.350;9.222;2022-12-18T00:50:04;102564.63;;;8.98;100.00
32324;BME280;25666;44.350;9.222;2022-12-18T00:52:30;102565.63;;;9.07;100.00
32324;BME280;25666;44.350;9.222;2022-12-18T00:54:58;102567.06;;;9.04;100.00
32324;BME280;25666;44.350;9.222;2022-12-18T00:57:24;102573.78;;;8.98;100.00
32324;BME280;25666;44.350;9.222;2022-12-18T00:59:49;102577.03;;;8.82;100.00
32324;BME280;25666;44.350;9.222;2022-12-18T01:02:17;102582.16;;;8.93;100.00
32324;BME280;25666;44.350;9.222;2022-12-18T01:04:42;102582.22;;;8.88;100.00
32324;BME280;25666;44.350;9.222;2022-12-18T01:07:08;102589.00;;;8.77;100.00
32324;BME280;25666;44.350;9.222;2022-12-18T01:09:34;102588.41;;;8.80;100.00
32324;BME280;25666;44.350;9.222;2022-12-18T01:12:00;102592.59;;;8.78;100.00
32324;BME280;25666;44.350;9.222;2022-12-18T01:14:25;102600.25;;;8.62;100.00
32324;BME280;25666;44.350;9.222;2022-12-18T01:16:52;102594.09;;;8.70;100.00
32324;BME280;25666;44.350;9.222;2022-12-18T01:19:17;102597.31;;;8.77;100.00
32324;BME280;25666;44.350;9.222;2022-12-18T01:21:43;102600.66;;;8.79;100.00
32324;BME280;25666;44.350;9.222;2022-12-18T01:24:11;102595.78;;;8.66;100.00
32324;BME280;25666;44.350;9.222;2022-12-18T01:26:37;102611.34;;;8.67;100.00
32324;BME280;25666;44.350;9.222;2022-12-18T01:29:02;102612.69;;;8.70;100.00
32324;BME280;25666;44.350;9.222;2022-12-18T01:31:33;102615.13;;;8.76;100.00
32324;BME280;25666;44.350;9.222;2022-12-18T01:34:02;102629.59;;;8.73;100.00
32324;BME280;25666;44.350;9.222;2022-12-18T01:36:29;102637.16;;;8.68;100.00
32324;BME280;25666;44.350;9.222;2022-12-18T01:39:04;102635.41;;;8.43;100.00
32324;BME280;25666;44.350;9.222;2022-12-18T01:41:31;102642.72;;;8.63;100.00
32324;BME280;25666;44.350;9.222;2022-12-18T01:47:15;102647.44;;;8.28;100.00
32324;BME280;25666;44.350;9.222;2022-12-18T01:49:43;102662.41;;;8.32;100.00
32324;BME280;25666;44.350;9.222;2022-12-18T01:52:09;102668.53;;;8.29;100.00
32324;BME280;25666;44.350;9.222;2022-12-18T01:54:34;102672.72;;;8.22;100.00
32324;BME280;25666;44.350;9.222;2022-12-18T01:57:00;102673.25;;;8.29;100.00
32324;BME280;25666;44.350;9.222;2022-12-18T01:59:27;102674.63;;;8.26;100.00
32324;BME280;25666;44.350;9.222;2022-12-18T02:01:55;102679.78;;;8.43;100.00
32324;BME280;25666;44.350;9.222;2022-12-18T02:04:24;102682.28;;;8.44;100.00
32324;BME280;25666;44.350;9.222;2022-12-18T02:09:48;102693.31;;;8.54;100.00
32324;BME280;25666;44.350;9.222;2022-12-18T02:12:23;102689.13;;;8.57;100.00
32324;BME280;25666;44.350;9.222;2022-12-18T02:15:12;102691.84;;;8.67;100.00
32324;BME280;25666;44.350;9.222;2022-12-18T02:18:02;102697.13;;;8.64;100.00
32324;BME280;25666;44.350;9.222;2022-12-18T02:20:54;102699.00;;;8.73;100.00
32324;BME280;25666;44.350;9.222;2022-12-18T02:26:21;102693.22;;;8.98;100.00
32324;BME280;25666;44.350;9.222;2022-12-18T02:28:58;102690.81;;;9.15;100.00
32324;BME280;25666;44.350;9.222;2022-12-18T02:31:32;102683.03;;;9.18;100.00
32324;BME280;25666;44.350;9.222;2022-12-18T02:34:02;102688.88;;;9.40;100.00
32324;BME280;25666;44.350;9.222;2022-12-18T02:36:36;102679.44;;;9.41;100.00
32324;BME280;25666;44.350;9.222;2022-12-18T02:39:06;102683.47;;;9.30;100.00
32324;BME280;25666;44.350;9.222;2022-12-18T02:41:32;102684.19;;;9.11;100.00
32324;BME280;25666;44.350;9.222;2022-12-18T02:44:01;102681.66;;;9.15;100.00
32324;BME280;25666;44.350;9.222;2022-12-18T02:46:37;102685.00;;;9.12;100.00
32324;BME280;25666;44.350;9.222;2022-12-18T02:54:55;102677.91;;;9.01;100.00
32324;BME280;25666;44.350;9.222;2022-12-18T02:57:40;102688.28;;;8.90;100.00
32324;BME280;25666;44.350;9.222;2022-12-18T03:00:21;102700.56;;;8.84;100.00
32324;BME280;25666;44.350;9.222;2022-12-18T03:02:54;102698.88;;;8.54;100.00
32324;BME280;25666;44.350;9.222;2022-12-18T03:05:22;102696.75;;;8.41;100.00
32324;BME280;25666;44.350;9.222;2022-12-18T03:08:08;102696.78;;;8.36;100.00
32324;BME280;25666;44.350;9.222;2022-12-18T03:10:43;102697.06;;;8.35;100.00
32324;BME280;25666;44.350;9.222;2022-12-18T03:13:19;102700.88;;;8.44;100.00
32324;BME280;25666;44.350;9.222;2022-12-18T03:15:48;102691.25;;;8.31;100.00
32324;BME280;25666;44.350;9.222;2022-12-18T03:18:24;102699.06;;;8.19;100.00
32324;BME280;25666;44.350;9.222;2022-12-18T03:20:55;102697.13;;;8.30;100.00
32324;BME280;25666;44.350;9.222;2022-12-18T03:23:25;102691.78;;;8.38;100.00
32324;BME280;25666;44.350;9.222;2022-12-18T03:25:57;102693.47;;;8.34;100.00
32324;BME280;25666;44.350;9.222;2022-12-18T03:28:27;102696.25;;;8.24;100.00
32324;BME280;25666;44.350;9.222;2022-12-18T03:31:00;102700.53;;;8.06;100.00
32324;BME280;25666;44.350;9.222;2022-12-18T03:33:55;102705.31;;;7.96;100.00
32324;BME280;25666;44.350;9.222;2022-12-18T03:36:28;102711.97;;;7.95;100.00
32324;BME280;25666;44.350;9.222;2022-12-18T03:38:54;102710.63;;;7.87;100.00
32324;BME280;25666;44.350;9.222;2022-12-18T03:41:43;102712.25;;;7.98;100.00
32324;BME280;25666;44.350;9.222;2022-12-18T03:44:46;102715.59;;;7.95;100.00
32324;BME280;25666;44.350;9.222;2022-12-18T03:47:32;102717.75;;;8.03;100.00
32324;BME280;25666;44.350;9.222;2022-12-18T03:50:20;102710.84;;;8.01;100.00
32324;BME280;25666;44.350;9.222;2022-12-18T03:55:58;102710.78;;;8.06;100.00
32324;BME280;25666;44.350;9.222;2022-12-18T03:58:31;102701.03;;;8.19;100.00
32324;BME280;25666;44.350;9.222;2022-12-18T04:01:25;102708.03;;;8.06;100.00
32324;BME280;25666;44.350;9.222;2022-12-18T04:03:52;102708.50;;;8.18;100.00
32324;BME280;25666;44.350;9.222;2022-12-18T04:06:19;102710.44;;;8.18;100.00
32324;BME280;25666;44.350;9.222;2022-12-18T04:08:46;102726.25;;;8.22;100.00
32324;BME280;25666;44.350;9.222;2022-12-18T04:11:15;102724.31;;;8.18;100.00
32324;BME280;25666;44.350;9.222;2022-12-18T04:13:43;102729.88;;;8.18;100.00
32324;BME280;25666;44.350;9.222;2022-12-18T04:16:17;102728.53;;;8.10;100.00
32324;BME280;25666;44.350;9.222;2022-12-18T04:18:44;102735.66;;;8.21;100.00
32324;BME280;25666;44.350;9.222;2022-12-18T04:21:10;102732.91;;;8.21;100.00
32324;BME280;25666;44.350;9.222;2022-12-18T04:23:36;102732.31;;;8.34;100.00
32324;BME280;25666;44.350;9.222;2022-12-18T04:26:02;102743.41;;;8.34;100.00
32324;BME280;25666;44.350;9.222;2022-12-18T04:28:41;102747.28;;;8.38;100.00
32324;BME280;25666;44.350;9.222;2022-12-18T04:31:07;102750.34;;;8.32;100.00
32324;BME280;25666;44.350;9.222;2022-12-18T04:33:33;102753.47;;;8.20;100.00
32324;BME280;25666;44.350;9.222;2022-12-18T04:35:58;102758.28;;;7.94;100.00
32324;BME280;25666;44.350;9.222;2022-12-18T04:38:24;102757.88;;;8.21;100.00
32324;BME280;25666;44.350;9.222;2022-12-18T04:40:57;102762.50;;;8.41;100.00
32324;BME280;25666;44.350;9.222;2022-12-18T04:43:25;102753.03;;;8.47;100.00
32324;BME280;25666;44.350;9.222;2022-12-18T04:45:51;102763.13;;;8.33;100.00
32324;BME280;25666;44.350;9.222;2022-12-18T04:48:16;102764.50;;;8.35;100.00
32324;BME280;25666;44.350;9.222;2022-12-18T04:50:42;102763.34;;;8.41;100.00
32324;BME280;25666;44.350;9.222;2022-12-18T04:53:07;102770.06;;;8.25;100.00
32324;BME280;25666;44.350;9.222;2022-12-18T04:55:33;102776.75;;;8.19;100.00
32324;BME280;25666;44.350;9.222;2022-12-18T04:57:58;102790.09;;;8.17;100.00
32324;BME280;25666;44.350;9.222;2022-12-18T05:00:24;102779.03;;;8.07;100.00
32324;BME280;25666;44.350;9.222;2022-12-18T05:02:49;102780.34;;;8.20;100.00
32324;BME280;25666;44.350;9.222;2022-12-18T05:05:15;102780.69;;;8.03;100.00
32324;BME280;25666;44.350;9.222;2022-12-18T05:07:40;102787.38;;;7.97;100.00
32324;BME280;25666;44.350;9.222;2022-12-18T05:10:06;102799.00;;;7.99;100.00
32324;BME280;25666;44.350;9.222;2022-12-18T05:12:32;102798.22;;;7.98;100.00
32324;BME280;25666;44.350;9.222;2022-12-18T05:14:57;102802.97;;;7.83;100.00
32324;BME280;25666;44.350;9.222;2022-12-18T05:17:23;102816.88;;;7.63;100.00
32324;BME280;25666;44.350;9.222;2022-12-18T05:19:48;102826.28;;;7.62;100.00
32324;BME280;25666;44.350;9.222;2022-12-18T05:22:14;102837.13;;;7.48;100.00
32324;BME280;25666;44.350;9.222;2022-12-18T05:24:39;102848.19;;;7.58;100.00
32324;BME280;25666;44.350;9.222;2022-12-18T05:27:05;102841.22;;;7.71;100.00
32324;BME280;25666;44.350;9.222;2022-12-18T05:29:30;102834.88;;;7.75;100.00
32324;BME280;25666;44.350;9.222;2022-12-18T05:31:56;102832.59;;;7.87;100.00
32324;BME280;25666;44.350;9.222;2022-12-18T05:34:21;102835.09;;;7.84;100.00
32324;BME280;25666;44.350;9.222;2022-12-18T05:36:47;102834.31;;;7.68;100.00
32324;BME280;25666;44.350;9.222;2022-12-18T05:39:12;102848.69;;;7.80;100.00
32324;BME280;25666;44.350;9.222;2022-12-18T05:41:38;102856.78;;;7.67;100.00
32324;BME280;25666;44.350;9.222;2022-12-18T05:44:04;102860.38;;;7.67;100.00
32324;BME280;25666;44.350;9.222;2022-12-18T05:46:30;102864.25;;;7.71;100.00
32324;BME280;25666;44.350;9.222;2022-12-18T05:48:59;102874.25;;;7.67;100.00
32324;BME280;25666;44.350;9.222;2022-12-18T05:51:24;102878.09;;;7.81;100.00
32324;BME280;25666;44.350;9.222;2022-12-18T05:53:50;102877.22;;;7.96;100.00
32324;BME280;25666;44.350;9.222;2022-12-18T05:56:19;102874.13;;;8.13;100.00
32324;BME280;25666;44.350;9.222;2022-12-18T05:58:45;102879.09;;;8.21;100.00
32324;BME280;25666;44.350;9.222;2022-12-18T06:01:17;102879.41;;;8.14;100.00
32324;BME280;25666;44.350;9.222;2022-12-18T06:03:44;102880.22;;;8.20;100.00
32324;BME280;25666;44.350;9.222;2022-12-18T06:06:18;102888.81;;;8.18;100.00
32324;BME280;25666;44.350;9.222;2022-12-18T06:08:45;102892.44;;;8.14;100.00
32324;BME280;25666;44.350;9.222;2022-12-18T06:11:10;102897.44;;;8.17;100.00
32324;BME280;25666;44.350;9.222;2022-12-18T06:13:37;102902.19;;;7.91;100.00
32324;BME280;25666;44.350;9.222;2022-12-18T06:16:05;102911.91;;;7.98;100.00
32324;BME280;25666;44.350;9.222;2022-12-18T06:18:32;102916.06;;;8.01;100.00
32324;BME280;25666;44.350;9.222;2022-12-18T06:20:59;102914.63;;;8.08;100.00
32324;BME280;25666;44.350;9.222;2022-12-18T06:23:25;102914.06;;;8.17;100.00
32324;BME280;25666;44.350;9.222;2022-12-18T06:25:51;102906.84;;;8.16;100.00
32324;BME280;25666;44.350;9.222;2022-12-18T06:28:16;102912.97;;;8.02;100.00
32324;BME280;25666;44.350;9.222;2022-12-18T06:30:46;102912.13;;;8.17;100.00
32324;BME280;25666;44.350;9.222;2022-12-18T06:33:14;102907.94;;;8.25;100.00
32324;BME280;25666;44.350;9.222;2022-12-18T06:35:40;102919.59;;;8.27;100.00
32324;BME280;25666;44.350;9.222;2022-12-18T06:38:05;102904.34;;;8.39;100.00
32324;BME280;25666;44.350;9.222;2022-12-18T06:40:31;102917.94;;;8.26;100.00
32324;BME280;25666;44.350;9.222;2022-12-18T06:42:57;102924.06;;;8.02;100.00
32324;BME280;25666;44.350;9.222;2022-12-18T06:45:23;102916.31;;;8.09;100.00
32324;BME280;25666;44.350;9.222;2022-12-18T06:47:49;102927.41;;;8.04;100.00
32324;BME280;25666;44.350;9.222;2022-12-18T06:50:15;102929.91;;;8.01;100.00
32324;BME280;25666;44.350;9.222;2022-12-18T06:52:40;102933.22;;;8.03;100.00
32324;BME280;25666;44.350;9.222;2022-12-18T06:55:09;102930.75;;;8.01;100.00
32324;BME280;25666;44.350;9.222;2022-12-18T06:57:35;102927.97;;;8.01;100.00
32324;BME280;25666;44.350;9.222;2022-12-18T07:00:01;102942.41;;;7.93;100.00
32324;BME280;25666;44.350;9.222;2022-12-18T07:02:26;102937.97;;;7.77;100.00
32324;BME280;25666;44.350;9.222;2022-12-18T07:04:52;102954.31;;;7.38;100.00
32324;BME280;25666;44.350;9.222;2022-12-18T07:07:20;102951.56;;;7.74;100.00
32324;BME280;25666;44.350;9.222;2022-12-18T07:09:46;102959.88;;;7.59;100.00
32324;BME280;25666;44.350;9.222;2022-12-18T07:12:11;102968.16;;;7.28;100.00
32324;BME280;25666;44.350;9.222;2022-12-18T07:14:37;102967.63;;;7.41;100.00
32324;BME280;25666;44.350;9.222;2022-12-18T07:17:02;102976.22;;;7.45;100.00
32324;BME280;25666;44.350;9.222;2022-12-18T07:19:29;102975.13;;;7.51;100.00
32324;BME280;25666;44.350;9.222;2022-12-18T07:21:54;102987.84;;;7.47;100.00
32324;BME280;25666;44.350;9.222;2022-12-18T07:24:19;102983.97;;;7.58;100.00
32324;BME280;25666;44.350;9.222;2022-12-18T07:26:46;102983.72;;;7.70;100.00
32324;BME280;25666;44.350;9.222;2022-12-18T07:29:11;102991.75;;;7.51;100.00
32324;BME280;25666;44.350;9.222;2022-12-18T07:31:37;103000.34;;;7.54;100.00
32324;BME280;25666;44.350;9.222;2022-12-18T07:34:02;103008.09;;;7.47;100.00
32324;BME280;25666;44.350;9.222;2022-12-18T07:36:28;103012.53;;;7.53;100.00
32324;BME280;25666;44.350;9.222;2022-12-18T07:38:53;103011.72;;;7.63;100.00
32324;BME280;25666;44.350;9.222;2022-12-18T07:41:20;103017.81;;;7.70;100.00
32324;BME280;25666;44.350;9.222;2022-12-18T07:43:46;103015.59;;;7.77;100.00
32324;BME280;25666;44.350;9.222;2022-12-18T07:46:13;103022.00;;;7.83;100.00
32324;BME280;25666;44.350;9.222;2022-12-18T07:48:42;103025.88;;;7.97;100.00
32324;BME280;25666;44.350;9.222;2022-12-18T07:51:08;103027.25;;;7.94;100.00
32324;BME280;25666;44.350;9.222;2022-12-18T07:53:38;103024.75;;;7.88;100.00
32324;BME280;25666;44.350;9.222;2022-12-18T07:56:09;103040.56;;;7.87;100.00
32324;BME280;25666;44.350;9.222;2022-12-18T07:58:36;103041.97;;;8.10;100.00
32324;BME280;25666;44.350;9.222;2022-12-18T08:01:06;103046.13;;;7.97;100.00
32324;BME280;25666;44.350;9.222;2022-12-18T08:03:32;103050.56;;;8.24;100.00
32324;BME280;25666;44.350;9.222;2022-12-18T08:06:08;103050.81;;;8.27;100.00
32324;BME280;25666;44.350;9.222;2022-12-18T08:08:35;103052.19;;;8.50;100.00
32324;BME280;25666;44.350;9.222;2022-12-18T08:11:01;103049.69;;;8.58;100.00
32324;BME280;25666;44.350;9.222;2022-12-18T08:13:27;103055.25;;;8.53;100.00
32324;BME280;25666;44.350;9.222;2022-12-18T08:16:00;103058.31;;;8.57;100.00
32324;BME280;25666;44.350;9.222;2022-12-18T08:18:26;103060.50;;;8.65;100.00
32324;BME280;25666;44.350;9.222;2022-12-18T08:20:52;103067.75;;;8.41;100.00
32324;BME280;25666;44.350;9.222;2022-12-18T08:23:17;103076.66;;;8.33;100.00
32324;BME280;25666;44.350;9.222;2022-12-18T08:25:43;103087.97;;;8.06;100.00
32324;BME280;25666;44.350;9.222;2022-12-18T08:28:09;103091.91;;;8.35;100.00
32324;BME280;25666;44.350;9.222;2022-12-18T08:30:36;103087.75;;;8.48;100.00
32324;BME280;25666;44.350;9.222;2022-12-18T08:33:01;103090.78;;;8.46;100.00
32324;BME280;25666;44.350;9.222;2022-12-18T08:35:27;103095.78;;;8.44;100.00
32324;BME280;25666;44.350;9.222;2022-12-18T08:37:53;103089.38;;;8.59;100.00
32324;BME280;25666;44.350;9.222;2022-12-18T08:40:21;103095.19;;;8.73;100.00
32324;BME280;25666;44.350;9.222;2022-12-18T08:42:47;103095.50;;;8.56;100.00
32324;BME280;25666;44.350;9.222;2022-12-18T08:45:31;103101.31;;;8.70;100.00
32324;BME280;25666;44.350;9.222;2022-12-18T08:47:56;103100.78;;;8.57;100.00
32324;BME280;25666;44.350;9.222;2022-12-18T08:50:22;103111.31;;;8.60;100.00
32324;BME280;25666;44.350;9.222;2022-12-18T08:52:47;103106.88;;;8.59;100.00
32324;BME280;25666;44.350;9.222;2022-12-18T08:55:13;103120.47;;;8.76;100.00
32324;BME280;25666;44.350;9.222;2022-12-18T08:57:38;103130.75;;;8.60;100.00
32324;BME280;25666;44.350;9.222;2022-12-18T09:00:04;103130.47;;;8.67;100.00
32324;BME280;25666;44.350;9.222;2022-12-18T09:02:30;103146.28;;;8.72;100.00
32324;BME280;25666;44.350;9.222;2022-12-18T09:04:55;103131.56;;;8.86;100.00
32324;BME280;25666;44.350;9.222;2022-12-18T09:07:21;103132.66;;;8.85;100.00
32324;BME280;25666;44.350;9.222;2022-12-18T09:09:46;103135.16;;;8.92;100.00
32324;BME280;25666;44.350;9.222;2022-12-18T09:12:12;103135.34;;;9.15;100.00
32324;BME280;25666;44.350;9.222;2022-12-18T09:14:37;103137.19;;;9.40;100.00
32324;BME280;25666;44.350;9.222;2022-12-18T09:17:03;103143.53;;;9.56;100.00
32324;BME280;25666;44.350;9.222;2022-12-18T09:19:29;103142.38;;;9.62;100.00
32324;BME280;25666;44.350;9.222;2022-12-18T09:21:54;103139.81;;;9.76;100.00
32324;BME280;25666;44.350;9.222;2022-12-18T09:24:20;103145.28;;;9.96;100.00
32324;BME280;25666;44.350;9.222;2022-12-18T09:26:45;103138.03;;;9.95;100.00
32324;BME280;25666;44.350;9.222;2022-12-18T09:29:11;103135.13;;;10.15;100.00
32324;BME280;25666;44.350;9.222;2022-12-18T09:31:38;103144.44;;;10.34;100.00
32324;BME280;25666;44.350;9.222;2022-12-18T09:34:03;103133.94;;;10.60;100.00
32324;BME280;25666;44.350;9.222;2022-12-18T09:36:32;103128.19;;;10.80;100.00
32324;BME280;25666;44.350;9.222;2022-12-18T09:38:57;103126.91;;;10.96;100.00
32324;BME280;25666;44.350;9.222;2022-12-18T09:41:50;103127.50;;;11.17;100.00
32324;BME280;25666;44.350;9.222;2022-12-18T09:44:28;103124.16;;;11.39;100.00
32324;BME280;25666;44.350;9.222;2022-12-18T09:49:46;103121.56;;;11.66;100.00
32324;BME280;25666;44.350;9.222;2022-12-18T09:52:26;103122.53;;;11.80;100.00
32324;BME280;25666;44.350;9.222;2022-12-18T09:55:11;103126.56;;;11.88;100.00
32324;BME280;25666;44.350;9.222;2022-12-18T09:57:44;103124.38;;;12.03;100.00
32324;BME280;25666;44.350;9.222;2022-12-18T10:00:17;103121.22;;;12.10;100.00
32324;BME280;25666;44.350;9.222;2022-12-18T10:02:44;103122.28;;;12.14;100.00
32324;BME280;25666;44.350;9.222;2022-12-18T10:05:17;103118.78;;;12.22;100.00
32324;BME280;25666;44.350;9.222;2022-12-18T10:10:25;103115.31;;;12.30;100.00
32324;BME280;25666;44.350;9.222;2022-12-18T10:13:02;103118.00;;;12.35;100.00
32324;BME280;25666;44.350;9.222;2022-12-18T10:18:36;103109.91;;;12.20;100.00
32324;BME280;25666;44.350;9.222;2022-12-18T10:21:12;103113.28;;;12.17;100.00
32324;BME280;25666;44.350;9.222;2022-12-18T10:26:15;103108.94;;;12.11;100.00
32324;BME280;25666;44.350;9.222;2022-12-18T10:28:41;103102.03;;;12.22;100.00
32324;BME280;25666;44.350;9.222;2022-12-18T10:31:19;103104.81;;;12.22;100.00
32324;BME280;25666;44.350;9.222;2022-12-18T10:33:45;103103.47;;;12.19;100.00
32324;BME280;25666;44.350;9.222;2022-12-18T10:36:11;103089.38;;;12.11;100.00
32324;BME280;25666;44.350;9.222;2022-12-18T10:38:37;103105.44;;;12.00;100.00
32324;BME280;25666;44.350;9.222;2022-12-18T10:41:24;103102.44;;;11.97;100.00
32324;BME280;25666;44.350;9.222;2022-12-18T10:44:12;103094.38;;;11.95;100.00
32324;BME280;25666;44.350;9.222;2022-12-18T10:46:38;103095.72;;;11.98;100.00
32324;BME280;25666;44.350;9.222;2022-12-18T10:49:03;103102.97;;;11.99;100.00
32324;BME280;25666;44.350;9.222;2022-12-18T10:51:32;103097.69;;;11.97;100.00
32324;BME280;25666;44.350;9.222;2022-12-18T10:54:06;103089.84;;;11.99;100.00
32324;BME280;25666;44.350;9.222;2022-12-18T10:56:36;103092.66;;;11.99;100.00
32324;BME280;25666;44.350;9.222;2022-12-18T10:59:05;103101.31;;;11.98;100.00
32324;BME280;25666;44.350;9.222;2022-12-18T11:06:54;103097.91;;;12.01;100.00
32324;BME280;25666;44.350;9.222;2022-12-18T11:09:23;103107.56;;;12.08;100.00
32324;BME280;25666;44.350;9.222;2022-12-18T11:11:54;103103.72;;;12.04;100.00
32324;BME280;25666;44.350;9.222;2022-12-18T11:14:41;103097.16;;;12.14;100.00
32324;BME280;25666;44.350;9.222;2022-12-18T11:17:36;103100.47;;;12.16;100.00
32324;BME280;25666;44.350;9.222;2022-12-18T11:20:07;103103.78;;;12.18;100.00
32324;BME280;25666;44.350;9.222;2022-12-18T11:22:55;103100.41;;;12.21;100.00
32324;BME280;25666;44.350;9.222;2022-12-18T11:25:21;103087.34;;;12.16;100.00
32324;BME280;25666;44.350;9.222;2022-12-18T11:28:29;103095.31;;;12.23;100.00
32324;BME280;25666;44.350;9.222;2022-12-18T11:33:44;103093.28;;;12.28;100.00
32324;BME280;25666;44.350;9.222;2022-12-18T11:36:12;103100.66;;;12.38;100.00
32324;BME280;25666;44.350;9.222;2022-12-18T11:38:41;103098.19;;;12.50;100.00
32324;BME280;25666;44.350;9.222;2022-12-18T11:44:29;103098.41;;;12.54;100.00
32324;BME280;25666;44.350;9.222;2022-12-18T11:47:37;103094.19;;;12.56;100.00
32324;BME280;25666;44.350;9.222;2022-12-18T11:50:14;103092.22;;;12.57;100.00
32324;BME280;25666;44.350;9.222;2022-12-18T11:52:40;103093.28;;;12.61;100.00
32324;BME280;25666;44.350;9.222;2022-12-18T11:55:37;103088.81;;;12.60;100.00
32324;BME280;25666;44.350;9.222;2022-12-18T11:58:28;103087.78;;;12.56;100.00
32324;BME280;25666;44.350;9.222;2022-12-18T12:01:06;103095.84;;;12.57;100.00
32324;BME280;25666;44.350;9.222;2022-12-18T12:14:56;103088.22;;;12.76;100.00
32324;BME280;25666;44.350;9.222;2022-12-18T12:23:09;103076.84;;;12.73;100.00
32324;BME280;25666;44.350;9.222;2022-12-18T12:25:54;103073.63;;;12.79;100.00
32324;BME280;25666;44.350;9.222;2022-12-18T12:31:23;103071.28;;;12.86;100.00
32324;BME280;25666;44.350;9.222;2022-12-18T12:39:36;103064.53;;;12.87;100.00
32324;BME280;25666;44.350;9.222;2022-12-18T12:42:04;103069.31;;;12.87;100.00
32324;BME280;25666;44.350;9.222;2022-12-18T12:44:55;103071.88;;;12.83;100.00
32324;BME280;25666;44.350;9.222;2022-12-18T12:47:29;103067.31;;;12.87;100.00
32324;BME280;25666;44.350;9.222;2022-12-18T12:49:58;103062.16;;;12.81;100.00
32324;BME280;25666;44.350;9.222;2022-12-18T12:52:44;103048.69;;;12.83;100.00
32324;BME280;25666;44.350;9.222;2022-12-18T12:55:26;103055.94;;;12.84;100.00
32324;BME280;25666;44.350;9.222;2022-12-18T13:00:30;103054.91;;;12.80;100.00
32324;BME280;25666;44.350;9.222;2022-12-18T13:09:00;103054.06;;;12.79;100.00
32324;BME280;25666;44.350;9.222;2022-12-18T13:11:46;103051.50;;;12.83;100.00
32324;BME280;25666;44.350;9.222;2022-12-18T13:14:39;103051.91;;;12.76;100.00
32324;BME280;25666;44.350;9.222;2022-12-18T13:20:25;103041.22;;;12.78;100.00
32324;BME280;25666;44.350;9.222;2022-12-18T13:22:58;103049.41;;;12.75;100.00
32324;BME280;25666;44.350;9.222;2022-12-18T13:25:37;103051.91;;;12.76;100.00
32324;BME280;25666;44.350;9.222;2022-12-18T13:31:06;103061.72;;;12.74;100.00
32324;BME280;25666;44.350;9.222;2022-12-18T13:38:37;103057.88;;;12.70;100.00
32324;BME280;25666;44.350;9.222;2022-12-18T13:41:26;103046.19;;;12.68;100.00
32324;BME280;25666;44.350;9.222;2022-12-18T13:44:13;103053.31;;;12.60;100.00
32324;BME280;25666;44.350;9.222;2022-12-18T13:46:48;103045.16;;;12.64;100.00
32324;BME280;25666;44.350;9.222;2022-12-18T13:49:25;103045.78;;;12.61;100.00
32324;BME280;25666;44.350;9.222;2022-12-18T13:51:54;103051.66;;;12.59;100.00
32324;BME280;25666;44.350;9.222;2022-12-18T13:54:34;103047.84;;;12.55;100.00
32324;BME280;25666;44.350;9.222;2022-12-18T13:57:01;103048.97;;;12.54;100.00
32324;BME280;25666;44.350;9.222;2022-12-18T13:59:39;103059.75;;;12.61;100.00
32324;BME280;25666;44.350;9.222;2022-12-18T14:02:21;103065.13;;;12.57;100.00
32324;BME280;25666;44.350;9.222;2022-12-18T14:04:49;103059.63;;;12.52;100.00
32324;BME280;25666;44.350;9.222;2022-12-18T14:07:24;103066.34;;;12.51;100.00
32324;BME280;25666;44.350;9.222;2022-12-18T14:10:00;103071.41;;;12.49;100.00
32324;BME280;25666;44.350;9.222;2022-12-18T14:12:31;103073.16;;;12.45;100.00
32324;BME280;25666;44.350;9.222;2022-12-18T14:17:52;103078.09;;;12.34;100.00
32324;BME280;25666;44.350;9.222;2022-12-18T14:20:19;103080.47;;;12.27;100.00
32324;BME280;25666;44.350;9.222;2022-12-18T14:22:47;103078.06;;;12.21;100.00
32324;BME280;25666;44.350;9.222;2022-12-18T14:25:22;103076.50;;;12.15;100.00
32324;BME280;25666;44.350;9.222;2022-12-18T14:27:52;103082.69;;;12.12;100.00
32324;BME280;25666;44.350;9.222;2022-12-18T14:30:27;103091.34;;;12.10;100.00
32324;BME280;25666;44.350;9.222;2022-12-18T14:33:04;103090.09;;;12.03;100.00